sensor_id;sensor_type;location;lat;lon;timestamp;temperature;humidity
25568;DHT22;13455;51.480;7.594;2023-03-01T00:01:24;-0.50;99.90
25568;DHT22;13455;51.480;7.594;2023-03-01T00:03:51;-0.50;99.90
25568;DHT22;13455;51.480;7.594;2023-03-01T00:06:17;-0.50;99.90
25568;DHT22;13455;51.480;7.594;2023-03-01T00:08:43;-0.50;99.90
25568;DHT22;13455;51.480;7.594;2023-03-01T00:13:39;-0.50;99.90
25568;DHT22;13455;51.480;7.594;2023-03-01T00:16:13;-0.50;99.90
25568;DHT22;13455;51.480;7.594;2023-03-01T00:18:39;-0.50;99.90
25568;DHT22;13455;51.480;7.594;2023-03-01T00:21:04;-0.50;99.90
25568;DHT22;13455;51.480;7.594;2023-03-01T00:23:31;-0.50;99.90
25568;DHT22;13455;51.480;7.594;2023-03-01T00:25:57;-0.50;99.90
25568;DHT22;13455;51.480;7.594;2023-03-01T00:28:23;-0.50;99.90
25568;DHT22;13455;51.480;7.594;2023-03-01T00:30:49;-0.50;99.90
25568;DHT22;13455;51.480;7.594;2023-03-01T00:33:14;-0.50;99.90
25568;DHT22;13455;51.480;7.594;2023-03-01T00:35:40;-0.60;99.90
25568;DHT22;13455;51.480;7.594;2023-03-01T00:38:06;-0.60;99.90
25568;DHT22;13455;51.480;7.594;2023-03-01T00:40:33;-0.60;99.90
25568;DHT22;13455;51.480;7.594;2023-03-01T00:42:59;-0.60;99.90
25568;DHT22;13455;51.480;7.594;2023-03-01T00:45:25;-0.70;99.90
25568;DHT22;13455;51.480;7.594;2023-03-01T00:47:51;-0.70;99.90
25568;DHT22;13455;51.480;7.594;2023-03-01T00:50:17;-0.70;99.90
25568;DHT22;13455;51.480;7.594;2023-03-01T00:52:43;-0.80;99.90
25568;DHT22;13455;51.480;7.594;2023-03-01T00:55:09;-0.80;99.90
25568;DHT22;13455;51.480;7.594;2023-03-01T00:57:35;-0.80;99.90
25568;DHT22;13455;51.480;7.594;2023-03-01T01:00:01;-0.80;99.90
25568;DHT22;13455;51.480;7.594;2023-03-01T01:02:26;-0.90;99.90
25568;DHT22;13455;51.480;7.594;2023-03-01T01:07:18;-0.90;99.90
25568;DHT22;13455;51.480;7.594;2023-03-01T01:09:45;-0.90;99.90
25568;DHT22;13455;51.480;7.594;2023-03-01T01:12:11;-0.90;99.90
25568;DHT22;13455;51.480;7.594;2023-03-01T01:14:37;0.00;99.90
25568;DHT22;13455;51.480;7.594;2023-03-01T01:17:03;-0.90;99.90
25568;DHT22;13455;51.480;7.594;2023-03-01T02:33:55;-1.60;99.90
25568;DHT22;13455;51.480;7.594;2023-03-01T02:36:31;-1.70;99.90
25568;DHT22;13455;51.480;7.594;2023-03-01T02:39:00;-1.70;99.90
25568;DHT22;13455;51.480;7.594;2023-03-01T02:41:29;-1.70;99.90
25568;DHT22;13455;51.480;7.594;2023-03-01T02:43:56;-1.70;99.90
25568;DHT22;13455;51.480;7.594;2023-03-01T02:46:24;-1.80;99.90
25568;DHT22;13455;51.480;7.594;2023-03-01T02:48:52;-1.80;99.90
25568;DHT22;13455;51.480;7.594;2023-03-01T02:51:27;-1.80;99.90
25568;DHT22;13455;51.480;7.594;2023-03-01T02:54:10;-1.80;99.90
25568;DHT22;13455;51.480;7.594;2023-03-01T02:56:37;-1.80;99.90
25568;DHT22;13455;51.480;7.594;2023-03-01T02:59:03;-1.80;99.90
25568;DHT22;13455;51.480;7.594;2023-03-01T03:01:29;-1.90;99.90
25568;DHT22;13455;51.480;7.594;2023-03-01T03:04:06;-1.90;99.90
25568;DHT22;13455;51.480;7.594;2023-03-01T03:06:32;-1.90;99.90
25568;DHT22;13455;51.480;7.594;2023-03-01T03:08:59;-1.70;99.90
25568;DHT22;13455;51.480;7.594;2023-03-01T03:11:25;-1.90;99.90
25568;DHT22;13455;51.480;7.594;2023-03-01T03:13:50;-1.90;99.90
25568;DHT22;13455;51.480;7.594;2023-03-01T03:16:17;-1.90;99.90
25568;DHT22;13455;51.480;7.594;2023-03-01T03:18:43;-2.00;99.90
25568;DHT22;13455;51.480;7.594;2023-03-01T03:21:10;-1.90;99.90
25568;DHT22;13455;51.480;7.594;2023-03-01T03:23:37;-2.00;99.90
25568;DHT22;13455;51.480;7.594;2023-03-01T03:26:04;-2.00;99.90
25568;DHT22;13455;51.480;7.594;2023-03-01T03:28:30;-2.00;99.90
25568;DHT22;13455;51.480;7.594;2023-03-01T03:30:56;-2.00;99.90
25568;DHT22;13455;51.480;7.594;2023-03-01T04:51:57;-2.20;99.90
25568;DHT22;13455;51.480;7.594;2023-03-01T04:54:28;-2.20;99.90
25568;DHT22;13455;51.480;7.594;2023-03-01T04:56:54;-2.30;99.90
25568;DHT22;13455;51.480;7.594;2023-03-01T04:59:20;-2.10;99.90
25568;DHT22;13455;51.480;7.594;2023-03-01T05:01:48;-2.20;99.90
25568;DHT22;13455;51.480;7.594;2023-03-01T05:04:14;-2.30;99.90
25568;DHT22;13455;51.480;7.594;2023-03-01T05:11:32;-2.30;99.90
25568;DHT22;13455;51.480;7.594;2023-03-01T05:14:02;-2.40;99.90
25568;DHT22;13455;51.480;7.594;2023-03-01T05:16:28;-2.20;99.90
25568;DHT22;13455;51.480;7.594;2023-03-01T05:18:55;-2.20;99.90
25568;DHT22;13455;51.480;7.594;2023-03-01T05:28:41;-2.60;99.90
25568;DHT22;13455;51.480;7.594;2023-03-01T05:31:06;-2.60;99.90
25568;DHT22;13455;51.480;7.594;2023-03-01T05:33:39;-2.60;99.90
25568;DHT22;13455;51.480;7.594;2023-03-01T05:36:08;-2.60;99.90
25568;DHT22;13455;51.480;7.594;2023-03-01T05:38:35;-2.70;99.90
25568;DHT22;13455;51.480;7.594;2023-03-01T05:41:01;-2.70;99.90
25568;DHT22;13455;51.480;7.594;2023-03-01T05:43:30;-2.80;99.90
25568;DHT22;13455;51.480;7.594;2023-03-01T05:45:57;-2.80;99.90
25568;DHT22;13455;51.480;7.594;2023-03-01T05:48:23;-2.90;99.90
25568;DHT22;13455;51.480;7.594;2023-03-01T05:53:18;-2.80;99.90
25568;DHT22;13455;51.480;7.594;2023-03-01T05:55:45;-2.80;99.90
25568;DHT22;13455;51.480;7.594;2023-03-01T05:58:14;-2.90;99.90
25568;DHT22;13455;51.480;7.594;2023-03-01T06:00:41;-2.90;99.90
25568;DHT22;13455;51.480;7.594;2023-03-01T06:03:10;-2.90;99.90
25568;DHT22;13455;51.480;7.594;2023-03-01T06:05:36;-2.90;99.90
25568;DHT22;13455;51.480;7.594;2023-03-01T06:08:02;-2.90;99.90
25568;DHT22;13455;51.480;7.594;2023-03-01T06:10:29;-3.00;99.90
25568;DHT22;13455;51.480;7.594;2023-03-01T06:12:54;-3.00;99.90
25568;DHT22;13455;51.480;7.594;2023-03-01T06:15:21;-3.00;99.90
25568;DHT22;13455;51.480;7.594;2023-03-01T06:17:47;-3.00;99.90
25568;DHT22;13455;51.480;7.594;2023-03-01T06:20:16;-2.90;99.90
25568;DHT22;13455;51.480;7.594;2023-03-01T06:22:43;-2.90;99.90
25568;DHT22;13455;51.480;7.594;2023-03-01T06:25:16;-2.90;99.90
25568;DHT22;13455;51.480;7.594;2023-03-01T06:27:42;-3.00;99.90
25568;DHT22;13455;51.480;7.594;2023-03-01T06:30:09;-2.90;99.90
25568;DHT22;13455;51.480;7.594;2023-03-01T06:32:36;-2.90;99.90
25568;DHT22;13455;51.480;7.594;2023-03-01T06:35:03;-2.90;99.90
25568;DHT22;13455;51.480;7.594;2023-03-01T06:37:28;-2.80;99.90
25568;DHT22;13455;51.480;7.594;2023-03-01T06:39:54;-1.90;99.90
25568;DHT22;13455;51.480;7.594;2023-03-01T06:42:20;-2.80;99.90
25568;DHT22;13455;51.480;7.594;2023-03-01T06:47:12;-2.80;99.90
25568;DHT22;13455;51.480;7.594;2023-03-01T06:49:37;-2.80;99.90
25568;DHT22;13455;51.480;7.594;2023-03-01T06:52:03;-2.80;99.90
25568;DHT22;13455;51.480;7.594;2023-03-01T06:54:29;-2.80;99.90
25568;DHT22;13455;51.480;7.594;2023-03-01T06:56:54;-2.80;99.90
25568;DHT22;13455;51.480;7.594;2023-03-01T06:59:20;-2.80;99.90
25568;DHT22;13455;51.480;7.594;2023-03-01T07:01:46;-2.80;99.90
25568;DHT22;13455;51.480;7.594;2023-03-01T07:04:13;-2.70;99.90
25568;DHT22;13455;51.480;7.594;2023-03-01T07:06:39;-2.70;99.90
25568;DHT22;13455;51.480;7.594;2023-03-01T07:09:05;-2.70;99.90
25568;DHT22;13455;51.480;7.594;2023-03-01T07:11:30;-2.40;99.90
25568;DHT22;13455;51.480;7.594;2023-03-01T07:13:56;-2.40;99.90
25568;DHT22;13455;51.480;7.594;2023-03-01T07:16:21;-2.10;99.90
25568;DHT22;13455;51.480;7.594;2023-03-01T07:18:47;-2.50;99.90
25568;DHT22;13455;51.480;7.594;2023-03-01T07:21:14;-2.50;99.90
25568;DHT22;13455;51.480;7.594;2023-03-01T07:23:40;-2.40;99.90
25568;DHT22;13455;51.480;7.594;2023-03-01T07:26:06;-2.40;99.90
25568;DHT22;13455;51.480;7.594;2023-03-01T07:28:32;-2.30;99.90
25568;DHT22;13455;51.480;7.594;2023-03-01T07:31:05;-2.20;99.90
25568;DHT22;13455;51.480;7.594;2023-03-01T07:33:31;-2.10;99.90
25568;DHT22;13455;51.480;7.594;2023-03-01T07:35:58;-2.00;99.90
25568;DHT22;13455;51.480;7.594;2023-03-01T07:38:23;-2.00;99.90
25568;DHT22;13455;51.480;7.594;2023-03-01T07:40:49;-2.00;99.90
25568;DHT22;13455;51.480;7.594;2023-03-01T07:43:15;-1.90;99.90
25568;DHT22;13455;51.480;7.594;2023-03-01T07:45:40;-1.90;99.90
25568;DHT22;13455;51.480;7.594;2023-03-01T07:48:06;-1.80;99.90
25568;DHT22;13455;51.480;7.594;2023-03-01T07:50:31;-1.70;99.90
25568;DHT22;13455;51.480;7.594;2023-03-01T07:52:57;-1.60;99.90
25568;DHT22;13455;51.480;7.594;2023-03-01T07:55:22;-1.50;99.90
25568;DHT22;13455;51.480;7.594;2023-03-01T07:57:48;-1.50;99.90
25568;DHT22;13455;51.480;7.594;2023-03-01T08:00:14;-1.40;99.90
25568;DHT22;13455;51.480;7.594;2023-03-01T08:02:39;-1.30;99.90
25568;DHT22;13455;51.480;7.594;2023-03-01T08:05:09;-1.20;99.90
25568;DHT22;13455;51.480;7.594;2023-03-01T08:07:35;-1.10;99.90
25568;DHT22;13455;51.480;7.594;2023-03-01T08:10:01;-1.00;99.90
25568;DHT22;13455;51.480;7.594;2023-03-01T08:12:26;-0.90;99.90
25568;DHT22;13455;51.480;7.594;2023-03-01T08:14:53;-0.80;99.90
25568;DHT22;13455;51.480;7.594;2023-03-01T08:17:19;-0.70;99.90
25568;DHT22;13455;51.480;7.594;2023-03-01T08:19:45;-0.60;99.90
25568;DHT22;13455;51.480;7.594;2023-03-01T08:22:10;-0.60;99.90
25568;DHT22;13455;51.480;7.594;2023-03-01T08:24:36;-0.40;99.90
25568;DHT22;13455;51.480;7.594;2023-03-01T08:27:02;-0.40;99.90
25568;DHT22;13455;51.480;7.594;2023-03-01T08:29:30;-0.30;99.90
25568;DHT22;13455;51.480;7.594;2023-03-01T08:31:56;-0.20;99.90
25568;DHT22;13455;51.480;7.594;2023-03-01T08:34:21;-0.10;99.90
25568;DHT22;13455;51.480;7.594;2023-03-01T08:36:47;0.30;99.90
25568;DHT22;13455;51.480;7.594;2023-03-01T08:39:14;0.20;99.90
25568;DHT22;13455;51.480;7.594;2023-03-01T08:41:40;0.30;99.90
25568;DHT22;13455;51.480;7.594;2023-03-01T08:44:06;0.40;99.90
25568;DHT22;13455;51.480;7.594;2023-03-01T08:46:34;0.50;99.90
25568;DHT22;13455;51.480;7.594;2023-03-01T08:49:04;0.70;99.90
25568;DHT22;13455;51.480;7.594;2023-03-01T08:51:30;0.80;99.90
25568;DHT22;13455;51.480;7.594;2023-03-01T08:53:57;0.90;99.90
25568;DHT22;13455;51.480;7.594;2023-03-01T08:56:23;1.00;99.90
25568;DHT22;13455;51.480;7.594;2023-03-01T09:01:17;1.20;99.90
25568;DHT22;13455;51.480;7.594;2023-03-01T09:03:44;1.40;99.90
25568;DHT22;13455;51.480;7.594;2023-03-01T09:06:10;1.50;99.90
25568;DHT22;13455;51.480;7.594;2023-03-01T09:08:38;1.60;99.90
25568;DHT22;13455;51.480;7.594;2023-03-01T09:11:06;1.70;99.90
25568;DHT22;13455;51.480;7.594;2023-03-01T09:13:33;1.80;99.90
25568;DHT22;13455;51.480;7.594;2023-03-01T09:16:00;2.10;99.90
25568;DHT22;13455;51.480;7.594;2023-03-01T09:18:27;2.00;99.90
25568;DHT22;13455;51.480;7.594;2023-03-01T09:30:38;2.50;99.90
25568;DHT22;13455;51.480;7.594;2023-03-01T09:33:04;2.60;99.90
25568;DHT22;13455;51.480;7.594;2023-03-01T09:35:30;2.70;99.90
25568;DHT22;13455;51.480;7.594;2023-03-01T09:40:24;2.80;99.90
25568;DHT22;13455;51.480;7.594;2023-03-01T09:45:34;2.80;99.90
25568;DHT22;13455;51.480;7.594;2023-03-01T10:00:56;3.40;99.90
25568;DHT22;13455;51.480;7.594;2023-03-01T10:03:31;3.50;99.90
25568;DHT22;13455;51.480;7.594;2023-03-01T10:06:11;3.50;99.90
25568;DHT22;13455;51.480;7.594;2023-03-01T10:08:57;3.60;99.90
25568;DHT22;13455;51.480;7.594;2023-03-01T10:11:28;3.70;99.90
25568;DHT22;13455;51.480;7.594;2023-03-01T10:17:07;4.00;99.90
25568;DHT22;13455;51.480;7.594;2023-03-01T10:19:41;4.10;99.90
25568;DHT22;13455;51.480;7.594;2023-03-01T10:22:18;4.20;99.90
25568;DHT22;13455;51.480;7.594;2023-03-01T10:24:47;4.30;99.90
25568;DHT22;13455;51.480;7.594;2023-03-01T10:27:21;4.40;99.90
25568;DHT22;13455;51.480;7.594;2023-03-01T10:50:09;5.40;99.90
25568;DHT22;13455;51.480;7.594;2023-03-01T10:52:56;5.40;99.90
25568;DHT22;13455;51.480;7.594;2023-03-01T10:55:33;5.40;99.90
25568;DHT22;13455;51.480;7.594;2023-03-01T10:58:20;5.60;99.90
25568;DHT22;13455;51.480;7.594;2023-03-01T11:00:55;5.90;99.90
25568;DHT22;13455;51.480;7.594;2023-03-01T11:03:26;5.90;99.90
25568;DHT22;13455;51.480;7.594;2023-03-01T11:08:38;6.20;99.90
25568;DHT22;13455;51.480;7.594;2023-03-01T11:16:36;6.50;99.90
25568;DHT22;13455;51.480;7.594;2023-03-01T11:21:37;6.70;99.90
25568;DHT22;13455;51.480;7.594;2023-03-01T11:26:38;7.00;99.90
25568;DHT22;13455;51.480;7.594;2023-03-01T11:34:09;7.20;99.90
25568;DHT22;13455;51.480;7.594;2023-03-01T11:44:43;7.70;99.90
25568;DHT22;13455;51.480;7.594;2023-03-01T11:47:26;7.80;99.90
25568;DHT22;13455;51.480;7.594;2023-03-01T12:57:40;10.10;91.00
25568;DHT22;13455;51.480;7.594;2023-03-01T13:06:11;10.70;84.70
25568;DHT22;13455;51.480;7.594;2023-03-01T13:08:56;11.20;92.60
25568;DHT22;13455;51.480;7.594;2023-03-01T13:14:56;11.80;78.00
25568;DHT22;13455;51.480;7.594;2023-03-01T13:29:54;12.30;77.30
25568;DHT22;13455;51.480;7.594;2023-03-01T13:39:47;13.00;75.30
25568;DHT22;13455;51.480;7.594;2023-03-01T13:42:34;13.10;74.30
25568;DHT22;13455;51.480;7.594;2023-03-01T13:45:00;13.30;69.90
25568;DHT22;13455;51.480;7.594;2023-03-01T13:47:27;13.20;68.40
25568;DHT22;13455;51.480;7.594;2023-03-01T13:49:58;13.90;70.20
25568;DHT22;13455;51.480;7.594;2023-03-01T13:57:39;14.30;75.90
25568;DHT22;13455;51.480;7.594;2023-03-01T14:03:14;14.50;65.20
25568;DHT22;13455;51.480;7.594;2023-03-01T14:05:43;14.70;62.70
25568;DHT22;13455;51.480;7.594;2023-03-01T14:08:24;14.70;63.60
25568;DHT22;13455;51.480;7.594;2023-03-01T14:16:45;14.60;57.90
25568;DHT22;13455;51.480;7.594;2023-03-01T14:19:24;14.10;54.50
25568;DHT22;13455;51.480;7.594;2023-03-01T14:22:05;13.70;54.00
25568;DHT22;13455;51.480;7.594;2023-03-01T14:27:13;12.00;85.40
25568;DHT22;13455;51.480;7.594;2023-03-01T14:29:40;11.50;57.30
25568;DHT22;13455;51.480;7.594;2023-03-01T14:34:36;11.00;58.10
25568;DHT22;13455;51.480;7.594;2023-03-01T14:37:17;10.80;58.10
25568;DHT22;13455;51.480;7.594;2023-03-01T14:39:44;10.70;59.10
25568;DHT22;13455;51.480;7.594;2023-03-01T14:42:09;10.70;85.00
25568;DHT22;13455;51.480;7.594;2023-03-01T14:44:35;10.00;61.80
25568;DHT22;13455;51.480;7.594;2023-03-01T14:47:11;9.40;64.30
25568;DHT22;13455;51.480;7.594;2023-03-01T14:49:38;9.40;68.30
25568;DHT22;13455;51.480;7.594;2023-03-01T14:52:07;9.40;64.00
25568;DHT22;13455;51.480;7.594;2023-03-01T14:54:47;9.30;65.60
25568;DHT22;13455;51.480;7.594;2023-03-01T14:57:22;8.90;66.60
25568;DHT22;13455;51.480;7.594;2023-03-01T14:59:49;9.30;71.50
25568;DHT22;13455;51.480;7.594;2023-03-01T15:07:15;8.40;69.60
25568;DHT22;13455;51.480;7.594;2023-03-01T15:17:37;7.80;73.90
25568;DHT22;13455;51.480;7.594;2023-03-01T15:25:25;7.60;74.40
25568;DHT22;13455;51.480;7.594;2023-03-01T15:35:46;7.50;75.50
25568;DHT22;13455;51.480;7.594;2023-03-01T15:40:59;8.10;77.10
25568;DHT22;13455;51.480;7.594;2023-03-01T15:46:17;7.10;78.00
25568;DHT22;13455;51.480;7.594;2023-03-01T15:48:47;7.10;78.30
25568;DHT22;13455;51.480;7.594;2023-03-01T16:08:19;7.20;99.90
25568;DHT22;13455;51.480;7.594;2023-03-01T16:10:45;7.10;80.80
25568;DHT22;13455;51.480;7.594;2023-03-01T16:13:12;6.90;80.00
25568;DHT22;13455;51.480;7.594;2023-03-01T16:15:38;6.80;79.90
25568;DHT22;13455;51.480;7.594;2023-03-01T16:18:05;6.80;81.30
25568;DHT22;13455;51.480;7.594;2023-03-01T16:20:32;6.70;81.40
25568;DHT22;13455;51.480;7.594;2023-03-01T16:22:59;6.70;82.40
25568;DHT22;13455;51.480;7.594;2023-03-01T16:25:28;6.60;82.60
25568;DHT22;13455;51.480;7.594;2023-03-01T16:27:54;6.50;83.40
25568;DHT22;13455;51.480;7.594;2023-03-01T16:30:22;6.50;83.80
25568;DHT22;13455;51.480;7.594;2023-03-01T16:32:49;6.50;83.40
25568;DHT22;13455;51.480;7.594;2023-03-01T16:35:18;6.40;83.60
25568;DHT22;13455;51.480;7.594;2023-03-01T16:37:44;6.30;91.20
25568;DHT22;13455;51.480;7.594;2023-03-01T16:42:43;6.20;87.00
25568;DHT22;13455;51.480;7.594;2023-03-01T16:45:09;6.10;85.70
25568;DHT22;13455;51.480;7.594;2023-03-01T16:47:35;6.10;85.30
25568;DHT22;13455;51.480;7.594;2023-03-01T16:50:03;6.10;85.00
25568;DHT22;13455;51.480;7.594;2023-03-01T16:52:31;6.00;85.00
25568;DHT22;13455;51.480;7.594;2023-03-01T16:54:56;5.90;85.10
25568;DHT22;13455;51.480;7.594;2023-03-01T16:57:22;5.80;85.30
25568;DHT22;13455;51.480;7.594;2023-03-01T16:59:51;5.70;85.60
25568;DHT22;13455;51.480;7.594;2023-03-01T17:02:18;5.60;85.90
25568;DHT22;13455;51.480;7.594;2023-03-01T17:04:50;5.70;85.80
25568;DHT22;13455;51.480;7.594;2023-03-01T17:07:19;5.70;86.80
25568;DHT22;13455;51.480;7.594;2023-03-01T17:09:45;5.60;86.10
25568;DHT22;13455;51.480;7.594;2023-03-01T17:12:14;5.60;85.90
25568;DHT22;13455;51.480;7.594;2023-03-01T17:29:26;5.20;86.00
25568;DHT22;13455;51.480;7.594;2023-03-01T17:31:52;5.20;86.70
25568;DHT22;13455;51.480;7.594;2023-03-01T17:34:21;5.10;87.70
25568;DHT22;13455;51.480;7.594;2023-03-01T17:36:46;5.00;87.30
25568;DHT22;13455;51.480;7.594;2023-03-01T17:39:15;4.90;87.80
25568;DHT22;13455;51.480;7.594;2023-03-01T17:41:41;4.80;88.20
25568;DHT22;13455;51.480;7.594;2023-03-01T17:44:07;4.70;88.60
25568;DHT22;13455;51.480;7.594;2023-03-01T17:56:19;4.70;89.20
25568;DHT22;13455;51.480;7.594;2023-03-01T17:58:45;4.60;90.20
25568;DHT22;13455;51.480;7.594;2023-03-01T18:01:19;4.40;90.30
25568;DHT22;13455;51.480;7.594;2023-03-01T18:08:45;4.20;91.20
25568;DHT22;13455;51.480;7.594;2023-03-01T18:11:12;4.20;91.40
25568;DHT22;13455;51.480;7.594;2023-03-01T18:13:38;4.00;91.90
25568;DHT22;13455;51.480;7.594;2023-03-01T18:21:02;4.00;92.40
25568;DHT22;13455;51.480;7.594;2023-03-01T18:23:29;3.90;93.10
25568;DHT22;13455;51.480;7.594;2023-03-01T18:30:58;3.70;93.70
25568;DHT22;13455;51.480;7.594;2023-03-01T18:33:24;3.70;94.30
25568;DHT22;13455;51.480;7.594;2023-03-01T18:35:50;3.70;94.40
25568;DHT22;13455;51.480;7.594;2023-03-01T18:52:54;3.60;96.60
25568;DHT22;13455;51.480;7.594;2023-03-01T19:00:12;3.50;97.60
25568;DHT22;13455;51.480;7.594;2023-03-01T19:05:04;3.40;98.10
25568;DHT22;13455;51.480;7.594;2023-03-01T19:48:57;3.00;99.90
25568;DHT22;13455;51.480;7.594;2023-03-01T19:51:28;2.90;99.90
25568;DHT22;13455;51.480;7.594;2023-03-01T19:53:53;2.90;99.90
25568;DHT22;13455;51.480;7.594;2023-03-01T19:58:45;2.80;99.90
25568;DHT22;13455;51.480;7.594;2023-03-01T20:03:42;2.70;99.90
25568;DHT22;13455;51.480;7.594;2023-03-01T20:06:18;2.70;99.90
25568;DHT22;13455;51.480;7.594;2023-03-01T20:08:44;2.50;99.90
25568;DHT22;13455;51.480;7.594;2023-03-01T20:11:12;2.60;99.90
25568;DHT22;13455;51.480;7.594;2023-03-01T20:13:38;2.50;99.90
25568;DHT22;13455;51.480;7.594;2023-03-01T20:16:06;2.50;99.90
25568;DHT22;13455;51.480;7.594;2023-03-01T20:18:32;2.50;99.90
25568;DHT22;13455;51.480;7.594;2023-03-01T20:20:59;2.50;99.90
25568;DHT22;13455;51.480;7.594;2023-03-01T20:23:25;2.50;99.90
25568;DHT22;13455;51.480;7.594;2023-03-01T20:25:51;2.50;99.90
25568;DHT22;13455;51.480;7.594;2023-03-01T20:33:17;2.40;99.90
25568;DHT22;13455;51.480;7.594;2023-03-01T20:35:42;2.40;99.90
25568;DHT22;13455;51.480;7.594;2023-03-01T20:38:08;2.40;99.90
25568;DHT22;13455;51.480;7.594;2023-03-01T20:40:35;2.30;99.90
25568;DHT22;13455;51.480;7.594;2023-03-01T20:43:03;2.40;99.90
25568;DHT22;13455;51.480;7.594;2023-03-01T21:17:16;2.10;99.90
25568;DHT22;13455;51.480;7.594;2023-03-01T21:19:43;2.10;99.90
25568;DHT22;13455;51.480;7.594;2023-03-01T21:22:13;2.00;99.90
